Time;durP1;ratioP1;P1;durP2;ratioP2;P2;SDS_P1;SDS_P2;PMS_P1;PMS_P2;Temp;Humidity;BMP_temperature;BMP_pressure;BME280_temperature;BME280_humidity;BME280_pressure;Samples;Min_cycle;Max_cycle;Signal;HPM_P1;HPM_P2
2021/05/16 00:00:28;;;;;;;1.38;0.80;;;;;;;;;;5035570;28;20025;-39
2021/05/16 00:02:54;;;;;;;2.72;0.93;;;;;;;;;;5032138;28;20322;-39
2021/05/16 00:05:21;;;;;;;2.35;0.95;;;;;;;;;;5035865;28;20029;-39
2021/05/16 00:07:47;;;;;;;3.85;0.80;;;;;;;;;;5036323;28;20025;-39
2021/05/16 00:10:14;;;;;;;2.47;0.90;;;;;;;;;;5035140;28;20026;-39
2021/05/16 00:12:40;;;;;;;3.25;1.00;;;;;;;;;;5034593;28;20040;-39
2021/05/16 00:15:06;;;;;;;1.95;0.90;;;;;;;;;;5029682;28;20029;-40
2021/05/16 00:17:32;;;;;;;2.70;1.00;;;;;;;;;;5036314;28;20026;-40
2021/05/16 00:19:58;;;;;;;3.38;1.00;;;;;;;;;;5031603;28;20112;-40
2021/05/16 00:22:24;;;;;;;6.45;1.20;;;;;;;;;;5030723;28;20022;-39
2021/05/16 00:24:51;;;;;;;2.28;0.90;;;;;;;;;;5036642;28;20025;-40
2021/05/16 00:27:16;;;;;;;1.77;0.82;;;;;;;;;;5033647;28;20056;-39
2021/05/16 00:29:42;;;;;;;2.55;0.82;;;;;;;;;;5035133;28;20351;-39
2021/05/16 00:32:08;;;;;;;2.63;0.93;;;;;;;;;;5037744;28;20030;-39
2021/05/16 00:34:34;;;;;;;3.20;1.08;;;;;;;;;;5030325;28;20136;-39
2021/05/16 00:37:01;;;;;;;2.17;0.90;;;;;;;;;;5033072;28;20029;-39
2021/05/16 00:39:26;;;;;;;4.00;1.20;;;;;;;;;;5047620;28;20188;-39
2021/05/16 00:41:53;;;;;;;3.78;1.15;;;;;;;;;;5027544;28;20045;-39
2021/05/16 00:44:19;;;;;;;4.15;0.98;;;;;;;;;;5034264;28;20021;-39
2021/05/16 00:46:45;;;;;;;1.83;0.80;;;;;;;;;;5035338;28;20100;-39
2021/05/16 00:49:13;;;;;;;2.95;0.73;;;;;;;;;;5030994;28;20042;-40
2021/05/16 00:51:39;;;;;;;2.72;0.90;;;;;;;;;;5036289;28;20354;-39
2021/05/16 00:54:06;;;;;;;3.20;0.98;;;;;;;;;;5035562;28;20026;-40
2021/05/16 00:56:32;;;;;;;2.28;0.80;;;;;;;;;;5035373;28;20032;-39
2021/05/16 00:59:00;;;;;;;3.42;1.15;;;;;;;;;;5030753;28;20105;-39
2021/05/16 01:01:26;;;;;;;3.92;0.98;;;;;;;;;;5035616;28;20034;-39
2021/05/16 01:03:52;;;;;;;2.80;1.00;;;;;;;;;;5032372;28;20091;-39
2021/05/16 01:06:18;;;;;;;3.85;1.17;;;;;;;;;;5031700;28;20036;-39
2021/05/16 01:08:48;;;;;;;4.43;0.85;;;;;;;;;;5030788;28;20021;-39
2021/05/16 01:11:14;;;;;;;2.97;0.90;;;;;;;;;;5034445;28;20030;-39
2021/05/16 01:13:40;;;;;;;1.88;0.80;;;;;;;;;;5033346;28;20453;-39
2021/05/16 01:16:06;;;;;;;3.05;1.00;;;;;;;;;;5035013;28;20035;-39
2021/05/16 01:18:32;;;;;;;2.33;0.85;;;;;;;;;;5031008;28;20108;-39
2021/05/16 01:20:58;;;;;;;2.92;0.95;;;;;;;;;;5034340;28;20109;-39
2021/05/16 01:23:45;;;;;;;2.08;0.85;;;;;;;;;;5034540;28;20045;-39
2021/05/16 01:26:11;;;;;;;1.75;0.90;;;;;;;;;;5031524;28;20037;-39
2021/05/16 01:28:37;;;;;;;2.17;0.90;;;;;;;;;;5034050;28;20030;-40
2021/05/16 01:31:03;;;;;;;3.13;0.95;;;;;;;;;;5036436;28;20116;-39
2021/05/16 01:33:29;;;;;;;2.03;0.77;;;;;;;;;;5033923;28;20049;-39
2021/05/16 01:35:55;;;;;;;2.45;0.88;;;;;;;;;;5034088;28;20424;-40
2021/05/16 01:38:21;;;;;;;5.15;0.98;;;;;;;;;;5034883;28;20121;-39
2021/05/16 01:40:47;;;;;;;3.65;1.13;;;;;;;;;;5034287;28;20025;-39
2021/05/16 01:43:13;;;;;;;3.20;0.90;;;;;;;;;;5030043;28;20112;-39
2021/05/16 01:45:39;;;;;;;2.97;0.90;;;;;;;;;;5035196;28;20469;-39
2021/05/16 01:48:05;;;;;;;3.15;0.98;;;;;;;;;;5030283;28;20025;-39
2021/05/16 01:50:32;;;;;;;1.73;0.90;;;;;;;;;;5033487;28;20041;-39
2021/05/16 01:52:59;;;;;;;3.17;0.90;;;;;;;;;;5034365;28;20021;-39
2021/05/16 01:55:25;;;;;;;4.13;1.08;;;;;;;;;;5034377;28;20345;-39
2021/05/16 01:57:51;;;;;;;2.50;0.90;;;;;;;;;;5033476;28;20442;-39
2021/05/16 02:00:26;;;;;;;3.55;1.25;;;;;;;;;;5034630;28;20095;-40
2021/05/16 02:02:53;;;;;;;3.40;0.90;;;;;;;;;;5029025;28;20045;-40
2021/05/16 02:05:19;;;;;;;5.43;0.90;;;;;;;;;;5032499;28;20487;-40
2021/05/16 02:07:45;;;;;;;2.22;0.70;;;;;;;;;;5031964;28;20029;-40
2021/05/16 02:10:11;;;;;;;2.55;0.88;;;;;;;;;;5032515;28;20361;-40
2021/05/16 02:12:37;;;;;;;1.00;0.80;;;;;;;;;;5033800;28;20021;-40
2021/05/16 02:15:03;;;;;;;3.10;0.70;;;;;;;;;;5033811;28;20025;-39
2021/05/16 02:17:30;;;;;;;2.13;0.70;;;;;;;;;;5033191;28;20025;-40
2021/05/16 02:19:56;;;;;;;3.10;1.02;;;;;;;;;;5032361;28;20512;-40
2021/05/16 02:22:22;;;;;;;3.85;1.00;;;;;;;;;;5033711;28;20056;-39
2021/05/16 02:24:48;;;;;;;1.95;0.82;;;;;;;;;;5032094;28;20036;-39
2021/05/16 02:27:16;;;;;;;1.38;0.73;;;;;;;;;;5030657;28;20436;-39
2021/05/16 02:29:42;;;;;;;2.85;0.88;;;;;;;;;;5029196;28;20076;-39
2021/05/16 02:32:08;;;;;;;2.47;0.90;;;;;;;;;;5035723;28;20084;-39
2021/05/16 02:34:34;;;;;;;3.58;1.00;;;;;;;;;;5033261;28;20017;-39
2021/05/16 02:37:00;;;;;;;1.42;0.68;;;;;;;;;;5032498;28;20026;-39
2021/05/16 02:39:26;;;;;;;1.90;1.10;;;;;;;;;;5026659;28;20354;-39
2021/05/16 02:41:52;;;;;;;2.53;1.10;;;;;;;;;;5032429;28;20045;-39
2021/05/16 02:44:19;;;;;;;2.50;0.90;;;;;;;;;;5033722;28;20480;-39
2021/05/16 02:46:45;;;;;;;3.70;1.05;;;;;;;;;;5031598;28;20029;-40
2021/05/16 02:49:11;;;;;;;2.85;0.88;;;;;;;;;;5032782;28;20125;-39
2021/05/16 02:51:37;;;;;;;3.30;0.70;;;;;;;;;;5027680;28;20026;-39
2021/05/16 02:54:04;;;;;;;1.38;0.77;;;;;;;;;;5032606;28;20047;-39
2021/05/16 02:56:30;;;;;;;1.70;0.88;;;;;;;;;;5024580;28;20404;-39
2021/05/16 02:58:56;;;;;;;1.70;0.75;;;;;;;;;;5032870;28;20022;-39
2021/05/16 03:01:22;;;;;;;2.13;0.70;;;;;;;;;;5031943;28;20029;-39
2021/05/16 03:03:48;;;;;;;4.18;1.23;;;;;;;;;;5028625;28;20087;-39
2021/05/16 03:06:14;;;;;;;2.28;1.00;;;;;;;;;;5044892;28;20057;-40
2021/05/16 03:08:40;;;;;;;1.75;0.80;;;;;;;;;;5031672;28;20101;-39
2021/05/16 03:11:06;;;;;;;2.45;0.80;;;;;;;;;;5024630;28;20033;-39
2021/05/16 03:13:32;;;;;;;2.53;0.80;;;;;;;;;;5031880;28;20536;-39
2021/05/16 03:15:58;;;;;;;2.90;0.90;;;;;;;;;;5026398;28;20031;-39
2021/05/16 03:18:24;;;;;;;2.53;0.80;;;;;;;;;;5024639;28;20109;-39
2021/05/16 03:20:50;;;;;;;1.35;0.80;;;;;;;;;;5032698;28;20025;-39
2021/05/16 03:23:16;;;;;;;1.48;0.70;;;;;;;;;;5024169;28;20082;-39
2021/05/16 03:25:42;;;;;;;2.35;0.65;;;;;;;;;;5028066;28;20477;-39
2021/05/16 03:28:08;;;;;;;2.03;0.90;;;;;;;;;;5031975;28;20029;-39
2021/05/16 03:30:34;;;;;;;3.53;1.00;;;;;;;;;;5031928;28;20040;-40
2021/05/16 03:33:00;;;;;;;1.85;0.80;;;;;;;;;;5032690;28;20353;-40
2021/05/16 03:35:26;;;;;;;2.22;0.80;;;;;;;;;;5031251;28;20018;-39
2021/05/16 03:37:52;;;;;;;3.05;0.70;;;;;;;;;;5031696;28;20083;-39
2021/05/16 03:40:18;;;;;;;1.70;0.80;;;;;;;;;;5031124;28;20021;-40
2021/05/16 03:42:44;;;;;;;1.42;0.80;;;;;;;;;;5029672;28;20068;-39
2021/05/16 03:45:11;;;;;;;2.00;1.00;;;;;;;;;;5024464;28;20092;-40
2021/05/16 03:47:38;;;;;;;2.20;0.65;;;;;;;;;;5031999;28;20079;-39
2021/05/16 03:50:04;;;;;;;2.10;1.08;;;;;;;;;;5031560;28;20034;-39
2021/05/16 03:52:30;;;;;;;1.35;0.70;;;;;;;;;;5031851;28;20040;-40
2021/05/16 03:54:56;;;;;;;1.05;0.65;;;;;;;;;;5029313;28;20025;-40
2021/05/16 03:57:22;;;;;;;2.08;0.90;;;;;;;;;;5026570;28;20072;-40
2021/05/16 03:59:49;;;;;;;2.13;0.80;;;;;;;;;;5031592;28;20037;-40
2021/05/16 04:02:15;;;;;;;0.95;0.70;;;;;;;;;;5030245;28;20030;-39
2021/05/16 04:04:41;;;;;;;2.03;0.90;;;;;;;;;;5033065;28;20116;-39
2021/05/16 04:07:07;;;;;;;1.90;0.98;;;;;;;;;;5034702;28;20030;-39
2021/05/16 04:09:33;;;;;;;3.20;1.00;;;;;;;;;;5035630;28;20046;-39
2021/05/16 04:11:59;;;;;;;2.45;0.65;;;;;;;;;;5034312;28;20026;-40
2021/05/16 04:14:25;;;;;;;2.85;0.60;;;;;;;;;;5032229;28;20022;-40
2021/05/16 04:16:51;;;;;;;1.60;0.80;;;;;;;;;;5027513;28;20409;-40
2021/05/16 04:19:18;;;;;;;1.90;0.70;;;;;;;;;;5031909;28;20104;-39
2021/05/16 04:21:44;;;;;;;1.48;0.70;;;;;;;;;;5029505;28;20029;-39
2021/05/16 04:24:10;;;;;;;1.60;0.60;;;;;;;;;;5035699;28;20034;-39
2021/05/16 04:26:36;;;;;;;1.13;0.80;;;;;;;;;;5029525;28;20045;-40
2021/05/16 04:29:03;;;;;;;1.23;0.60;;;;;;;;;;5034724;28;20128;-40
2021/05/16 04:31:29;;;;;;;2.10;0.80;;;;;;;;;;5031436;28;20018;-40
2021/05/16 04:33:55;;;;;;;1.15;0.60;;;;;;;;;;5033408;28;20029;-40
2021/05/16 04:36:21;;;;;;;2.55;0.70;;;;;;;;;;5030661;28;20025;-40
2021/05/16 04:38:48;;;;;;;1.45;0.63;;;;;;;;;;5034026;28;20465;-40
2021/05/16 04:41:14;;;;;;;1.52;0.80;;;;;;;;;;5030772;28;20036;-40
2021/05/16 04:43:40;;;;;;;2.08;0.77;;;;;;;;;;5033220;28;20796;-39
2021/05/16 04:46:06;;;;;;;1.73;0.80;;;;;;;;;;5030623;28;20061;-39
2021/05/16 04:48:32;;;;;;;1.80;0.70;;;;;;;;;;5033695;28;20033;-39
2021/05/16 04:50:58;;;;;;;1.33;0.70;;;;;;;;;;5033037;28;20048;-39
2021/05/16 04:53:28;;;;;;;2.63;0.60;;;;;;;;;;5030014;28;20025;-39
2021/05/16 04:55:54;;;;;;;1.25;0.73;;;;;;;;;;5031531;28;20029;-39
2021/05/16 04:58:20;;;;;;;2.55;0.80;;;;;;;;;;5034194;28;20022;-40
2021/05/16 05:00:46;;;;;;;1.23;0.60;;;;;;;;;;5033731;28;20029;-40
2021/05/16 05:03:12;;;;;;;1.55;0.77;;;;;;;;;;5033111;28;20214;-39
2021/05/16 05:05:38;;;;;;;0.80;0.55;;;;;;;;;;5030508;28;20089;-39
2021/05/16 05:08:04;;;;;;;2.30;0.80;;;;;;;;;;5033282;28;20128;-39
2021/05/16 05:10:30;;;;;;;1.95;0.70;;;;;;;;;;5027627;28;20029;-40
2021/05/16 05:12:56;;;;;;;2.60;0.85;;;;;;;;;;5033947;28;20096;-39
2021/05/16 05:15:22;;;;;;;2.60;1.08;;;;;;;;;;5031030;28;20079;-39
2021/05/16 05:17:48;;;;;;;2.65;1.00;;;;;;;;;;5032876;28;20453;-40
2021/05/16 05:20:14;;;;;;;1.00;0.60;;;;;;;;;;5032781;28;20029;-40
2021/05/16 05:22:40;;;;;;;1.58;0.82;;;;;;;;;;5034045;28;20065;-39
2021/05/16 05:25:07;;;;;;;0.80;0.68;;;;;;;;;;5032638;28;20048;-40
2021/05/16 05:27:33;;;;;;;1.25;0.60;;;;;;;;;;5032424;28;20033;-40
2021/05/16 05:29:59;;;;;;;1.58;0.80;;;;;;;;;;5028979;28;20036;-39
2021/05/16 05:32:25;;;;;;;1.92;0.68;;;;;;;;;;5033007;28;20034;-40
2021/05/16 05:34:51;;;;;;;1.33;0.60;;;;;;;;;;5055776;28;20037;-39
2021/05/16 05:37:17;;;;;;;3.10;0.85;;;;;;;;;;5026615;28;20026;-40
2021/05/16 05:39:43;;;;;;;2.10;0.85;;;;;;;;;;5029386;28;20033;-39
2021/05/16 05:42:09;;;;;;;1.10;0.57;;;;;;;;;;5026982;28;20033;-40
2021/05/16 05:44:39;;;;;;;1.65;0.70;;;;;;;;;;5031432;28;20470;-40
2021/05/16 05:47:05;;;;;;;4.38;0.80;;;;;;;;;;5028900;28;20033;-40
2021/05/16 05:49:31;;;;;;;1.85;0.70;;;;;;;;;;5032646;28;20042;-39
2021/05/16 05:51:59;;;;;;;1.95;0.75;;;;;;;;;;5031917;28;20029;-39
2021/05/16 05:54:25;;;;;;;1.83;0.68;;;;;;;;;;5027071;28;20025;-40
2021/05/16 05:56:51;;;;;;;1.48;0.70;;;;;;;;;;5048223;28;20045;-41
2021/05/16 05:59:17;;;;;;;1.63;0.70;;;;;;;;;;5030498;28;20029;-39
2021/05/16 06:01:44;;;;;;;1.90;0.75;;;;;;;;;;5030291;28;20033;-41
2021/05/16 06:04:10;;;;;;;1.20;0.63;;;;;;;;;;5027844;28;20022;-40
2021/05/16 06:06:36;;;;;;;1.42;0.80;;;;;;;;;;5030967;28;20033;-39
2021/05/16 06:09:02;;;;;;;1.05;0.60;;;;;;;;;;5033223;28;20017;-40
2021/05/16 06:11:28;;;;;;;1.45;0.60;;;;;;;;;;5031299;28;20044;-40
2021/05/16 06:13:54;;;;;;;1.25;0.70;;;;;;;;;;5030972;28;20021;-40
2021/05/16 06:16:20;;;;;;;2.83;0.70;;;;;;;;;;5032273;28;20493;-40
2021/05/16 06:18:46;;;;;;;1.17;0.70;;;;;;;;;;5024393;28;20022;-39
2021/05/16 06:21:12;;;;;;;2.10;0.70;;;;;;;;;;5026632;28;20186;-40
2021/05/16 06:26:23;;;;;;;1.65;0.70;;;;;;;;;;5032040;28;20612;-40
2021/05/16 06:28:49;;;;;;;0.93;0.55;;;;;;;;;;5027144;28;20083;-40
2021/05/16 06:31:15;;;;;;;2.53;0.63;;;;;;;;;;5032177;28;20113;-40
2021/05/16 06:33:41;;;;;;;1.30;0.70;;;;;;;;;;5030777;28;20105;-39
2021/05/16 06:36:07;;;;;;;0.93;0.50;;;;;;;;;;5031517;28;20545;-39
2021/05/16 06:38:33;;;;;;;1.25;0.60;;;;;;;;;;5029942;28;20116;-39
2021/05/16 06:40:59;;;;;;;1.23;0.70;;;;;;;;;;5025898;28;20112;-39
2021/05/16 06:43:25;;;;;;;0.60;0.50;;;;;;;;;;5031535;28;20371;-40
2021/05/16 06:45:51;;;;;;;2.38;0.75;;;;;;;;;;5022687;28;20026;-40
2021/05/16 06:48:17;;;;;;;0.88;0.60;;;;;;;;;;5030205;28;20045;-39
2021/05/16 06:50:43;;;;;;;2.20;0.70;;;;;;;;;;5026392;28;20462;-40
2021/05/16 06:53:09;;;;;;;1.73;0.80;;;;;;;;;;5029081;28;20076;-39
2021/05/16 06:55:35;;;;;;;1.35;0.75;;;;;;;;;;5025660;28;20478;-39
2021/05/16 06:58:01;;;;;;;1.55;0.68;;;;;;;;;;5030537;28;20057;-40
2021/05/16 07:00:27;;;;;;;2.70;1.00;;;;;;;;;;5034076;28;20060;-39
2021/05/16 07:02:53;;;;;;;1.38;0.63;;;;;;;;;;5027793;28;20034;-39
2021/05/16 07:05:20;;;;;;;3.42;0.60;;;;;;;;;;5031861;28;20036;-39
2021/05/16 07:07:46;;;;;;;1.25;0.60;;;;;;;;;;5029922;28;20017;-40
2021/05/16 07:10:12;;;;;;;1.65;0.70;;;;;;;;;;5031659;28;20029;-39
2021/05/16 07:12:38;;;;;;;7.15;0.60;;;;;;;;;;5028607;28;20486;-39
2021/05/16 07:15:04;;;;;;;1.52;0.80;;;;;;;;;;5032352;28;20104;-39
2021/05/16 07:17:30;;;;;;;13.68;2.38;;;;;;;;;;5028984;28;20025;-42
2021/05/16 07:19:56;;;;;;;0.85;0.70;;;;;;;;;;5033344;28;20092;-41
2021/05/16 07:22:22;;;;;;;2.92;0.50;;;;;;;;;;5029153;28;20029;-38
2021/05/16 07:24:48;;;;;;;1.13;0.60;;;;;;;;;;5030105;28;20354;-40
2021/05/16 07:27:14;;;;;;;1.50;0.65;;;;;;;;;;5030185;28;20040;-41
2021/05/16 07:29:40;;;;;;;2.05;0.70;;;;;;;;;;5030003;28;20040;-40
2021/05/16 07:32:07;;;;;;;2.28;0.80;;;;;;;;;;5034547;28;20029;-40
2021/05/16 07:34:33;;;;;;;2.65;0.80;;;;;;;;;;5033088;28;20025;-39
2021/05/16 07:36:59;;;;;;;1.58;0.60;;;;;;;;;;5034648;28;20520;-40
2021/05/16 07:39:25;;;;;;;2.38;0.80;;;;;;;;;;5032940;28;20033;-41
2021/05/16 07:41:51;;;;;;;3.72;0.80;;;;;;;;;;5033739;28;20056;-41
2021/05/16 07:44:17;;;;;;;1.42;0.70;;;;;;;;;;5032278;28;20052;-41
2021/05/16 07:46:43;;;;;;;1.20;0.55;;;;;;;;;;5033855;28;20033;-40
2021/05/16 07:49:09;;;;;;;1.27;0.50;;;;;;;;;;5032429;28;20472;-40
2021/05/16 07:51:35;;;;;;;3.22;0.70;;;;;;;;;;5033309;28;20091;-40
2021/05/16 07:54:01;;;;;;;1.27;0.70;;;;;;;;;;5032540;28;20120;-40
2021/05/16 07:56:27;;;;;;;1.02;0.63;;;;;;;;;;5033524;28;20060;-39
2021/05/16 07:58:53;;;;;;;2.42;0.70;;;;;;;;;;5032225;28;20080;-40
2021/05/16 08:01:19;;;;;;;1.05;0.75;;;;;;;;;;5032595;28;20095;-39
2021/05/16 08:03:46;;;;;;;2.63;0.70;;;;;;;;;;5015832;28;20121;-40
2021/05/16 08:06:13;;;;;;;3.00;0.70;;;;;;;;;;5029303;28;20029;-39
2021/05/16 08:08:39;;;;;;;1.42;0.70;;;;;;;;;;5034877;28;20068;-39
2021/05/16 08:11:05;;;;;;;5.45;0.80;;;;;;;;;;5033277;28;20061;-39
2021/05/16 08:13:31;;;;;;;2.28;0.80;;;;;;;;;;5034453;28;20040;-39
2021/05/16 08:15:57;;;;;;;2.72;0.80;;;;;;;;;;5032945;28;20029;-39
2021/05/16 08:18:23;;;;;;;2.28;0.63;;;;;;;;;;5034781;28;20036;-39
2021/05/16 08:20:49;;;;;;;10.10;0.90;;;;;;;;;;5033162;28;20033;-43
2021/05/16 08:23:15;;;;;;;2.40;1.02;;;;;;;;;;5034895;28;20515;-41
2021/05/16 08:25:41;;;;;;;6.07;0.80;;;;;;;;;;5032849;28;20026;-40
2021/05/16 08:28:09;;;;;;;7.82;0.80;;;;;;;;;;5033524;28;20112;-44
2021/05/16 08:30:35;;;;;;;10.65;1.02;;;;;;;;;;5033928;28;20853;-41
2021/05/16 08:33:01;;;;;;;1.50;0.80;;;;;;;;;;5032340;28;20104;-46
2021/05/16 08:35:27;;;;;;;2.30;0.75;;;;;;;;;;5031263;28;20096;-45
2021/05/16 08:37:53;;;;;;;10.88;0.90;;;;;;;;;;5030325;28;20067;-43
2021/05/16 08:40:19;;;;;;;1.17;0.63;;;;;;;;;;5031110;28;20036;-45
2021/05/16 08:42:45;;;;;;;3.33;1.13;;;;;;;;;;5030964;28;20029;-42
2021/05/16 08:45:13;;;;;;;6.15;1.15;;;;;;;;;;5029048;28;20167;-43
2021/05/16 08:47:39;;;;;;;9.75;1.10;;;;;;;;;;5030171;28;20064;-42
2021/05/16 08:50:06;;;;;;;12.10;0.90;;;;;;;;;;5030912;28;20049;-40
2021/05/16 08:52:32;;;;;;;1.20;0.60;;;;;;;;;;5032311;28;20044;-46
2021/05/16 08:54:58;;;;;;;3.65;0.70;;;;;;;;;;5031722;28;20026;-45
2021/05/16 08:57:24;;;;;;;10.00;0.98;;;;;;;;;;5031581;28;20124;-42
2021/05/16 09:00:07;;;;;;;8.23;0.90;;;;;;;;;;5030929;28;20473;-42
2021/05/16 09:02:33;;;;;;;4.85;0.80;;;;;;;;;;5030681;28;20048;-42
2021/05/16 09:04:59;;;;;;;7.07;1.05;;;;;;;;;;5029712;28;20025;-50
2021/05/16 09:07:29;;;;;;;6.55;0.70;;;;;;;;;;5030958;28;20084;-40
2021/05/16 09:09:55;;;;;;;1.07;0.50;;;;;;;;;;5029915;28;20041;-48
2021/05/16 09:12:22;;;;;;;3.03;0.70;;;;;;;;;;5030324;28;20179;-44
2021/05/16 09:14:52;;;;;;;4.95;0.80;;;;;;;;;;5030538;28;20014;-48
2021/05/16 09:17:36;;;;;;;1.67;0.65;;;;;;;;;;5028975;28;20025;-46
2021/05/16 09:20:06;;;;;;;7.82;0.63;;;;;;;;;;5029052;28;20113;-43
2021/05/16 09:22:36;;;;;;;3.88;0.70;;;;;;;;;;5029459;28;20094;-50
2021/05/16 09:25:11;;;;;;;3.50;0.80;;;;;;;;;;5031048;28;20029;-46
2021/05/16 09:27:37;;;;;;;17.73;2.20;;;;;;;;;;5031389;28;20030;-55
2021/05/16 09:30:16;;;;;;;4.47;0.90;;;;;;;;;;5029030;28;20034;-55
2021/05/16 09:33:00;;;;;;;1.15;0.60;;;;;;;;;;5029663;28;20025;-49
2021/05/16 09:35:26;;;;;;;3.13;0.90;;;;;;;;;;5031194;28;20044;-50
2021/05/16 09:38:06;;;;;;;8.70;0.77;;;;;;;;;;5032521;28;20033;-45
2021/05/16 09:40:33;;;;;;;5.65;0.90;;;;;;;;;;5032015;28;20072;-43
2021/05/16 09:43:08;;;;;;;6.25;0.80;;;;;;;;;;5033911;28;20112;-56
2021/05/16 09:45:45;;;;;;;3.80;1.02;;;;;;;;;;5032052;28;20025;-52
2021/05/16 09:48:31;;;;;;;1.85;0.70;;;;;;;;;;5026598;28;20359;-48
2021/05/16 09:51:16;;;;;;;2.00;0.70;;;;;;;;;;5032870;28;20214;-51
2021/05/16 09:53:46;;;;;;;4.38;0.90;;;;;;;;;;5031169;28;20018;-53
2021/05/16 09:56:19;;;;;;;3.05;0.82;;;;;;;;;;5032944;28;20017;-51
2021/05/16 09:58:45;;;;;;;1.95;0.80;;;;;;;;;;5065315;28;20032;-46
2021/05/16 10:01:11;;;;;;;2.50;0.80;;;;;;;;;;5033358;28;20025;-45
2021/05/16 10:03:38;;;;;;;0.95;0.70;;;;;;;;;;5064559;28;20032;-46
2021/05/16 10:06:04;;;;;;;3.08;0.80;;;;;;;;;;5032789;28;20022;-54
2021/05/16 10:08:33;;;;;;;1.20;0.90;;;;;;;;;;5065329;28;20026;-49
2021/05/16 10:10:59;;;;;;;3.50;1.00;;;;;;;;;;5033400;28;20018;-50
2021/05/16 10:13:27;;;;;;;1.65;0.90;;;;;;;;;;5033024;28;20107;-51
2021/05/16 10:15:53;;;;;;;2.58;1.00;;;;;;;;;;5033164;28;20030;-50
2021/05/16 10:18:19;;;;;;;2.58;1.00;;;;;;;;;;5031643;28;20049;-49
2021/05/16 10:20:45;;;;;;;2.45;0.90;;;;;;;;;;5032891;28;20021;-51
2021/05/16 10:23:11;;;;;;;4.43;1.33;;;;;;;;;;5029883;28;20037;-56
2021/05/16 10:25:44;;;;;;;4.25;1.00;;;;;;;;;;5032390;28;20496;-48
2021/05/16 10:28:15;;;;;;;3.88;1.38;;;;;;;;;;5030230;28;20409;-42
2021/05/16 10:30:56;;;;;;;4.32;1.00;;;;;;;;;;5031147;28;20029;-43
2021/05/16 10:33:35;;;;;;;2.60;1.00;;;;;;;;;;5031119;28;20328;-47
2021/05/16 10:36:01;;;;;;;7.18;1.05;;;;;;;;;;5032087;28;20354;-45
2021/05/16 10:38:33;;;;;;;2.95;1.00;;;;;;;;;;5033040;28;20022;-45
2021/05/16 10:41:15;;;;;;;2.65;1.23;;;;;;;;;;5033084;28;20515;-45
2021/05/16 10:43:41;;;;;;;3.63;1.00;;;;;;;;;;5033170;28;20033;-45
2021/05/16 10:46:25;;;;;;;2.58;0.88;;;;;;;;;;5033324;28;20029;-47
2021/05/16 10:48:51;;;;;;;2.17;1.15;;;;;;;;;;5031034;28;20123;-43
2021/05/16 10:51:27;;;;;;;6.15;1.40;;;;;;;;;;5032935;28;20448;-51
2021/05/16 10:53:54;;;;;;;2.97;0.98;;;;;;;;;;5027520;28;20094;-48
2021/05/16 10:56:21;;;;;;;3.20;1.20;;;;;;;;;;5032227;28;20040;-47
2021/05/16 10:58:48;;;;;;;2.33;1.00;;;;;;;;;;5032042;28;20465;-46
2021/05/16 11:01:30;;;;;;;5.38;1.60;;;;;;;;;;5024499;28;20042;-50
2021/05/16 11:03:57;;;;;;;7.80;1.73;;;;;;;;;;5030607;28;20033;-45
2021/05/16 11:06:24;;;;;;;7.43;1.52;;;;;;;;;;5029708;28;20029;-48
2021/05/16 11:08:50;;;;;;;8.18;1.83;;;;;;;;;;5033106;28;20025;-53
2021/05/16 11:11:26;;;;;;;8.20;1.98;;;;;;;;;;5031285;28;20033;-52
2021/05/16 11:13:52;;;;;;;6.50;1.60;;;;;;;;;;5013649;28;20017;-48
2021/05/16 11:16:18;;;;;;;6.93;1.92;;;;;;;;;;5033217;28;20020;-46
2021/05/16 11:18:44;;;;;;;6.80;1.80;;;;;;;;;;5032497;28;20057;-50
2021/05/16 11:21:13;;;;;;;4.97;1.50;;;;;;;;;;5032660;28;20035;-51
2021/05/16 11:23:40;;;;;;;6.05;1.40;;;;;;;;;;5031849;28;20021;-47
2021/05/16 11:26:10;;;;;;;2.80;1.52;;;;;;;;;;5033296;28;20033;-54
2021/05/16 11:28:37;;;;;;;5.00;1.40;;;;;;;;;;5031742;28;20126;-50
2021/05/16 11:31:09;;;;;;;4.43;1.70;;;;;;;;;;5031217;28;20057;-47
2021/05/16 11:33:36;;;;;;;4.38;1.75;;;;;;;;;;5031227;28;20083;-47
2021/05/16 11:36:09;;;;;;;2.38;1.45;;;;;;;;;;5031897;28;20116;-47
2021/05/16 11:38:35;;;;;;;3.53;1.60;;;;;;;;;;5033114;28;20021;-49
2021/05/16 11:41:01;;;;;;;4.10;1.60;;;;;;;;;;5033260;28;20276;-47
2021/05/16 11:43:28;;;;;;;2.38;1.17;;;;;;;;;;5033805;28;20434;-53
2021/05/16 11:45:54;;;;;;;7.82;1.65;;;;;;;;;;5034086;28;20030;-49
2021/05/16 11:48:29;;;;;;;7.07;1.98;;;;;;;;;;5032281;28;20136;-48
2021/05/16 11:50:55;;;;;;;6.90;1.85;;;;;;;;;;5025428;28;20056;-47
2021/05/16 11:53:22;;;;;;;5.05;2.03;;;;;;;;;;5031683;28;20029;-47
2021/05/16 11:55:49;;;;;;;3.80;1.90;;;;;;;;;;5033782;28;20091;-48
2021/05/16 11:58:15;;;;;;;6.00;1.63;;;;;;;;;;5032728;28;20037;-49
2021/05/16 12:00:41;;;;;;;4.18;1.98;;;;;;;;;;5032994;28;20075;-52
2021/05/16 12:03:16;;;;;;;3.75;2.00;;;;;;;;;;5031856;28;20466;-49
2021/05/16 12:05:43;;;;;;;6.82;2.08;;;;;;;;;;5032062;28;20052;-52
2021/05/16 12:08:13;;;;;;;15.80;1.90;;;;;;;;;;5031775;28;20025;-56
2021/05/16 12:10:39;;;;;;;4.00;1.60;;;;;;;;;;5031441;28;20036;-50
2021/05/16 12:13:18;;;;;;;3.40;1.77;;;;;;;;;;5033186;28;20049;-52
2021/05/16 12:15:44;;;;;;;6.65;1.70;;;;;;;;;;5032673;28;20331;-46
2021/05/16 12:18:20;;;;;;;3.75;1.48;;;;;;;;;;5029047;28;20022;-50
2021/05/16 12:20:46;;;;;;;2.90;1.42;;;;;;;;;;5036726;28;20087;-47
2021/05/16 12:23:12;;;;;;;10.43;1.75;;;;;;;;;;5035589;28;20021;-47
2021/05/16 12:25:38;;;;;;;8.77;1.67;;;;;;;;;;5036143;28;20361;-46
2021/05/16 12:28:05;;;;;;;2.53;1.45;;;;;;;;;;5033192;28;20018;-48
2021/05/16 12:30:31;;;;;;;3.22;1.52;;;;;;;;;;5033998;28;20034;-46
2021/05/16 12:32:58;;;;;;;4.70;1.48;;;;;;;;;;5034132;28;20413;-48
2021/05/16 12:35:24;;;;;;;2.75;1.33;;;;;;;;;;5033987;28;20032;-51
2021/05/16 12:37:50;;;;;;;3.85;1.45;;;;;;;;;;5033643;28;20030;-48
2021/05/16 12:40:25;;;;;;;3.42;1.73;;;;;;;;;;5032800;28;20044;-51
2021/05/16 12:43:04;;;;;;;3.00;1.30;;;;;;;;;;5035210;28;20037;-36
2021/05/16 12:45:30;;;;;;;3.38;1.10;;;;;;;;;;5035671;28;20041;-36
2021/05/16 12:48:04;;;;;;;4.22;1.45;;;;;;;;;;5035444;28;20181;-39
2021/05/16 12:50:42;;;;;;;3.88;1.50;;;;;;;;;;5035050;28;20397;-44
2021/05/16 12:53:23;;;;;;;1.70;1.08;;;;;;;;;;5039208;28;20036;-38
2021/05/16 12:55:49;;;;;;;3.08;1.30;;;;;;;;;;5029165;28;20021;-39
2021/05/16 12:58:19;;;;;;;3.35;1.23;;;;;;;;;;5035495;28;20109;-42
2021/05/16 13:00:54;;;;;;;3.03;1.30;;;;;;;;;;5035126;28;20516;-48
2021/05/16 13:03:27;;;;;;;2.92;1.27;;;;;;;;;;5035219;28;20025;-40
2021/05/16 13:05:53;;;;;;;2.50;1.10;;;;;;;;;;5029630;28;20029;-44
2021/05/16 13:08:35;;;;;;;5.35;1.27;;;;;;;;;;5032217;28;20457;-47
2021/05/16 13:11:02;;;;;;;4.13;1.20;;;;;;;;;;5032791;28;20037;-43
2021/05/16 13:13:40;;;;;;;5.00;1.40;;;;;;;;;;5034931;28;20064;-49
2021/05/16 13:16:07;;;;;;;5.53;1.40;;;;;;;;;;5035087;28;20056;-43
2021/05/16 13:18:34;;;;;;;2.33;1.10;;;;;;;;;;5034893;28;20091;-48
2021/05/16 13:21:11;;;;;;;2.47;1.10;;;;;;;;;;5034646;28;20473;-44
2021/05/16 13:23:37;;;;;;;3.70;1.33;;;;;;;;;;5028519;28;20454;-46
2021/05/16 13:26:03;;;;;;;2.55;1.10;;;;;;;;;;5032387;28;20033;-40
2021/05/16 13:28:29;;;;;;;1.45;1.00;;;;;;;;;;5040375;28;20034;-37
2021/05/16 13:30:56;;;;;;;4.28;1.20;;;;;;;;;;5027183;28;20076;-48
2021/05/16 13:33:32;;;;;;;3.00;1.00;;;;;;;;;;5034433;28;20036;-48
2021/05/16 13:35:58;;;;;;;3.42;1.10;;;;;;;;;;5028702;28;20030;-44
2021/05/16 13:38:26;;;;;;;2.70;1.10;;;;;;;;;;5034698;28;20017;-40
2021/05/16 13:40:52;;;;;;;3.75;1.10;;;;;;;;;;5034750;28;20033;-38
2021/05/16 13:43:18;;;;;;;6.38;1.20;;;;;;;;;;5031171;28;20040;-46
2021/05/16 13:45:44;;;;;;;4.22;1.50;;;;;;;;;;5034295;28;20037;-45
2021/05/16 13:48:10;;;;;;;2.03;1.15;;;;;;;;;;5034046;28;20029;-40
2021/05/16 13:50:36;;;;;;;3.65;1.02;;;;;;;;;;5032903;28;20053;-41
2021/05/16 13:53:02;;;;;;;3.28;1.20;;;;;;;;;;5027585;28;20025;-45
2021/05/16 13:55:28;;;;;;;3.00;1.25;;;;;;;;;;5028029;28;20031;-44
2021/05/16 13:57:55;;;;;;;1.92;1.10;;;;;;;;;;5032209;28;20056;-46
2021/05/16 14:00:21;;;;;;;2.15;1.00;;;;;;;;;;5032568;28;20049;-47
2021/05/16 14:02:49;;;;;;;1.98;1.00;;;;;;;;;;5031075;28;20026;-51
2021/05/16 14:05:15;;;;;;;2.92;1.20;;;;;;;;;;5031220;28;20469;-46
2021/05/16 14:07:41;;;;;;;2.70;1.15;;;;;;;;;;5031860;28;20071;-41
2021/05/16 14:10:07;;;;;;;2.65;1.00;;;;;;;;;;5031503;28;20064;-44
2021/05/16 14:12:33;;;;;;;1.75;0.88;;;;;;;;;;5023447;28;20029;-40
2021/05/16 14:14:59;;;;;;;2.63;1.10;;;;;;;;;;5029317;28;20091;-40
2021/05/16 14:17:25;;;;;;;2.30;1.00;;;;;;;;;;5031402;28;20033;-39
2021/05/16 14:19:51;;;;;;;2.83;1.25;;;;;;;;;;5031038;28;20117;-40
2021/05/16 14:22:19;;;;;;;1.52;1.02;;;;;;;;;;5031397;28;20465;-40
2021/05/16 14:24:45;;;;;;;3.85;1.08;;;;;;;;;;5030709;28;20519;-42
2021/05/16 14:27:11;;;;;;;2.47;1.20;;;;;;;;;;5028996;28;20404;-42
2021/05/16 14:29:37;;;;;;;4.38;1.13;;;;;;;;;;5031052;28;20018;-43
2021/05/16 14:32:03;;;;;;;2.75;1.10;;;;;;;;;;5032234;28;20026;-47
2021/05/16 14:34:29;;;;;;;1.92;1.00;;;;;;;;;;5032947;28;20022;-40
2021/05/16 14:36:55;;;;;;;1.80;0.93;;;;;;;;;;5031971;28;20091;-38
2021/05/16 14:39:21;;;;;;;1.40;1.02;;;;;;;;;;5032345;28;20026;-44
2021/05/16 14:41:47;;;;;;;1.58;0.93;;;;;;;;;;5032017;28;20346;-45
2021/05/16 14:44:13;;;;;;;2.35;1.15;;;;;;;;;;5032598;28;20021;-50
2021/05/16 14:46:40;;;;;;;4.72;1.40;;;;;;;;;;5032946;28;20025;-56